sensor_id;sensor_type;location;lat;lon;timestamp;pressure;altitude;pressure_sealevel;temperature;humidity
65557;BME280;52200;53.490;14.376;2023-04-09T00:01:06;102603.34;;;5.85;94.31
65557;BME280;52200;53.490;14.376;2023-04-09T00:03:32;102598.66;;;5.64;94.40
65557;BME280;52200;53.490;14.376;2023-04-09T00:05:58;102604.13;;;5.81;93.32
65557;BME280;52200;53.490;14.376;2023-04-09T00:08:23;102596.34;;;6.08;92.43
65557;BME280;52200;53.490;14.376;2023-04-09T00:10:49;102595.09;;;5.91;92.60
65557;BME280;52200;53.490;14.376;2023-04-09T00:13:15;102602.06;;;6.01;92.81
65557;BME280;52200;53.490;14.376;2023-04-09T00:15:41;102599.09;;;6.18;91.62
65557;BME280;52200;53.490;14.376;2023-04-09T00:18:06;102600.44;;;6.02;91.17
65557;BME280;52200;53.490;14.376;2023-04-09T00:20:31;102597.66;;;5.57;92.65
65557;BME280;52200;53.490;14.376;2023-04-09T00:22:57;102600.38;;;5.65;93.52
65557;BME280;52200;53.490;14.376;2023-04-09T00:25:22;102602.22;;;5.72;94.26
65557;BME280;52200;53.490;14.376;2023-04-09T00:27:48;102603.06;;;5.73;93.32
65557;BME280;52200;53.490;14.376;2023-04-09T00:30:13;102605.19;;;5.56;94.01
65557;BME280;52200;53.490;14.376;2023-04-09T00:32:38;102609.19;;;5.47;93.91
65557;BME280;52200;53.490;14.376;2023-04-09T00:35:04;102602.44;;;5.14;95.74
65557;BME280;52200;53.490;14.376;2023-04-09T00:37:30;102601.69;;;5.17;96.26
65557;BME280;52200;53.490;14.376;2023-04-09T00:39:55;102602.13;;;5.34;96.17
65557;BME280;52200;53.490;14.376;2023-04-09T00:42:20;102598.28;;;5.48;95.37
65557;BME280;52200;53.490;14.376;2023-04-09T00:44:46;102602.13;;;5.34;94.73
65557;BME280;52200;53.490;14.376;2023-04-09T00:47:11;102601.28;;;5.67;94.86
65557;BME280;52200;53.490;14.376;2023-04-09T00:49:36;102595.41;;;5.68;94.52
65557;BME280;52200;53.490;14.376;2023-04-09T00:52:02;102588.72;;;5.70;94.04
65557;BME280;52200;53.490;14.376;2023-04-09T00:54:27;102583.47;;;5.61;94.67
65557;BME280;52200;53.490;14.376;2023-04-09T00:56:54;102593.25;;;5.48;94.34
65557;BME280;52200;53.490;14.376;2023-04-09T00:59:20;102589.69;;;5.40;95.67
65557;BME280;52200;53.490;14.376;2023-04-09T01:01:46;102582.25;;;5.45;95.25
65557;BME280;52200;53.490;14.376;2023-04-09T01:04:12;102595.22;;;5.60;94.15
65557;BME280;52200;53.490;14.376;2023-04-09T01:06:46;102583.69;;;5.37;94.89
65557;BME280;52200;53.490;14.376;2023-04-09T01:09:25;102592.38;;;5.48;95.75
65557;BME280;52200;53.490;14.376;2023-04-09T01:14:37;102583.97;;;5.47;95.86
65557;BME280;52200;53.490;14.376;2023-04-09T01:17:15;102587.16;;;5.07;97.56
65557;BME280;52200;53.490;14.376;2023-04-09T01:20:00;102590.44;;;5.04;98.02
65557;BME280;52200;53.490;14.376;2023-04-09T01:28:24;102596.03;;;5.26;99.38
65557;BME280;52200;53.490;14.376;2023-04-09T01:31:05;102595.00;;;5.51;97.89
65557;BME280;52200;53.490;14.376;2023-04-09T01:33:32;102601.91;;;5.25;97.84
65557;BME280;52200;53.490;14.376;2023-04-09T01:35:58;102593.63;;;5.30;98.21
65557;BME280;52200;53.490;14.376;2023-04-09T01:38:25;102593.59;;;5.62;96.44
65557;BME280;52200;53.490;14.376;2023-04-09T01:40:51;102594.25;;;5.55;95.68
65557;BME280;52200;53.490;14.376;2023-04-09T01:43:19;102596.34;;;5.38;97.07
65557;BME280;52200;53.490;14.376;2023-04-09T01:45:46;102597.91;;;5.33;96.79
65557;BME280;52200;53.490;14.376;2023-04-09T01:48:13;102588.81;;;5.73;96.18
65557;BME280;52200;53.490;14.376;2023-04-09T01:50:39;102590.72;;;5.48;95.74
65557;BME280;52200;53.490;14.376;2023-04-09T01:53:05;102596.66;;;5.51;96.92
65557;BME280;52200;53.490;14.376;2023-04-09T01:55:31;102596.03;;;5.26;97.10
65557;BME280;52200;53.490;14.376;2023-04-09T01:57:56;102595.03;;;5.19;97.61
65557;BME280;52200;53.490;14.376;2023-04-09T02:00:24;102591.81;;;4.93;98.76
65557;BME280;52200;53.490;14.376;2023-04-09T02:05:36;102589.22;;;5.22;97.91
65557;BME280;52200;53.490;14.376;2023-04-09T02:08:06;102597.44;;;5.16;98.54
65557;BME280;52200;53.490;14.376;2023-04-09T02:10:34;102588.09;;;4.80;99.75
65557;BME280;52200;53.490;14.376;2023-04-09T02:13:00;102594.03;;;5.12;100.00
65557;BME280;52200;53.490;14.376;2023-04-09T02:15:30;102585.06;;;4.92;99.35
65557;BME280;52200;53.490;14.376;2023-04-09T02:17:56;102587.03;;;5.36;98.36
65557;BME280;52200;53.490;14.376;2023-04-09T02:20:21;102590.63;;;5.12;98.51
65557;BME280;52200;53.490;14.376;2023-04-09T02:22:47;102588.59;;;5.30;98.47
65557;BME280;52200;53.490;14.376;2023-04-09T02:25:14;102587.28;;;5.45;97.02
65557;BME280;52200;53.490;14.376;2023-04-09T02:27:39;102586.34;;;5.41;97.57
65557;BME280;52200;53.490;14.376;2023-04-09T02:30:05;102587.94;;;5.06;97.92
65557;BME280;52200;53.490;14.376;2023-04-09T02:32:31;102584.97;;;4.89;98.80
65557;BME280;52200;53.490;14.376;2023-04-09T02:34:56;102586.63;;;5.19;99.11
65557;BME280;52200;53.490;14.376;2023-04-09T02:37:21;102583.44;;;5.26;98.41
65557;BME280;52200;53.490;14.376;2023-04-09T02:39:47;102588.25;;;5.16;98.30
65557;BME280;52200;53.490;14.376;2023-04-09T02:42:12;102592.78;;;4.98;99.27
65557;BME280;52200;53.490;14.376;2023-04-09T02:44:37;102588.66;;;5.00;99.29
65557;BME280;52200;53.490;14.376;2023-04-09T02:47:03;102582.13;;;5.08;98.21
65557;BME280;52200;53.490;14.376;2023-04-09T02:49:28;102583.50;;;5.27;98.17
65557;BME280;52200;53.490;14.376;2023-04-09T02:51:53;102582.69;;;4.96;99.42
65557;BME280;52200;53.490;14.376;2023-04-09T02:54:19;102579.88;;;4.86;99.38
65557;BME280;52200;53.490;14.376;2023-04-09T02:56:44;102583.53;;;4.97;99.73
65557;BME280;52200;53.490;14.376;2023-04-09T02:59:09;102584.69;;;5.10;99.79
65557;BME280;52200;53.490;14.376;2023-04-09T03:01:35;102588.84;;;5.08;99.59
65557;BME280;52200;53.490;14.376;2023-04-09T03:04:00;102580.06;;;5.25;99.12
65557;BME280;52200;53.490;14.376;2023-04-09T03:06:26;102576.94;;;5.02;99.24
65557;BME280;52200;53.490;14.376;2023-04-09T03:08:51;102583.53;;;4.97;100.00
65557;BME280;52200;53.490;14.376;2023-04-09T03:11:17;102579.81;;;5.16;99.62
65557;BME280;52200;53.490;14.376;2023-04-09T03:13:42;102579.00;;;4.85;100.00
65557;BME280;52200;53.490;14.376;2023-04-09T03:16:07;102580.97;;;4.95;100.00
65557;BME280;52200;53.490;14.376;2023-04-09T03:18:35;102582.78;;;5.01;100.00
65557;BME280;52200;53.490;14.376;2023-04-09T03:21:06;102577.50;;;5.24;99.61
65557;BME280;52200;53.490;14.376;2023-04-09T03:23:32;102578.03;;;5.45;98.88
65557;BME280;52200;53.490;14.376;2023-04-09T03:26:03;102577.00;;;5.37;98.20
65557;BME280;52200;53.490;14.376;2023-04-09T03:28:29;102578.81;;;5.09;99.24
65557;BME280;52200;53.490;14.376;2023-04-09T03:30:55;102582.34;;;5.16;99.44
65557;BME280;52200;53.490;14.376;2023-04-09T03:33:20;102571.06;;;5.02;100.00
65557;BME280;52200;53.490;14.376;2023-04-09T03:35:45;102574.56;;;5.07;100.00
65557;BME280;52200;53.490;14.376;2023-04-09T03:38:11;102571.91;;;5.02;100.00
65557;BME280;52200;53.490;14.376;2023-04-09T03:40:36;102571.53;;;5.20;100.00
65557;BME280;52200;53.490;14.376;2023-04-09T03:43:01;102566.31;;;5.12;100.00
65557;BME280;52200;53.490;14.376;2023-04-09T03:45:28;102576.94;;;5.36;99.45
65557;BME280;52200;53.490;14.376;2023-04-09T03:47:53;102561.75;;;5.31;99.54
65557;BME280;52200;53.490;14.376;2023-04-09T03:50:19;102573.09;;;5.15;100.00
65557;BME280;52200;53.490;14.376;2023-04-09T03:52:45;102573.09;;;5.48;99.25
65557;BME280;52200;53.490;14.376;2023-04-09T03:55:10;102572.59;;;5.63;98.63
65557;BME280;52200;53.490;14.376;2023-04-09T03:57:35;102574.16;;;5.58;98.45
65557;BME280;52200;53.490;14.376;2023-04-09T04:00:01;102570.94;;;5.30;99.56
65557;BME280;52200;53.490;14.376;2023-04-09T04:02:26;102578.03;;;5.12;100.00
65557;BME280;52200;53.490;14.376;2023-04-09T04:04:54;102569.06;;;5.22;100.00
65557;BME280;52200;53.490;14.376;2023-04-09T04:07:19;102576.75;;;5.26;100.00
65557;BME280;52200;53.490;14.376;2023-04-09T04:09:45;102567.31;;;5.54;99.60
65557;BME280;52200;53.490;14.376;2023-04-09T04:12:10;102573.38;;;5.61;99.19
65557;BME280;52200;53.490;14.376;2023-04-09T04:14:35;102574.84;;;5.18;99.81
65557;BME280;52200;53.490;14.376;2023-04-09T04:17:01;102571.59;;;5.23;100.00
65557;BME280;52200;53.490;14.376;2023-04-09T04:19:26;102576.19;;;5.38;100.00
65557;BME280;52200;53.490;14.376;2023-04-09T04:21:51;102578.59;;;5.33;100.00
65557;BME280;52200;53.490;14.376;2023-04-09T04:24:17;102586.66;;;5.20;100.00
65557;BME280;52200;53.490;14.376;2023-04-09T04:26:42;102583.25;;;5.18;100.00
65557;BME280;52200;53.490;14.376;2023-04-09T04:29:07;102584.63;;;5.07;100.00
65557;BME280;52200;53.490;14.376;2023-04-09T04:31:33;102575.16;;;5.30;100.00
65557;BME280;52200;53.490;14.376;2023-04-09T04:33:58;102577.06;;;5.07;100.00
65557;BME280;52200;53.490;14.376;2023-04-09T04:36:23;102576.22;;;5.06;100.00
65557;BME280;52200;53.490;14.376;2023-04-09T04:38:48;102580.44;;;5.07;100.00
65557;BME280;52200;53.490;14.376;2023-04-09T04:41:14;102564.59;;;5.45;100.00
65557;BME280;52200;53.490;14.376;2023-04-09T04:43:40;102575.56;;;5.47;100.00
65557;BME280;52200;53.490;14.376;2023-04-09T04:46:05;102579.69;;;5.43;100.00
65557;BME280;52200;53.490;14.376;2023-04-09T04:48:30;102572.03;;;5.40;100.00
65557;BME280;52200;53.490;14.376;2023-04-09T04:50:57;102575.88;;;5.59;100.00
65557;BME280;52200;53.490;14.376;2023-04-09T04:53:23;102573.28;;;5.58;100.00
65557;BME280;52200;53.490;14.376;2023-04-09T04:55:48;102578.13;;;5.48;100.00
65557;BME280;52200;53.490;14.376;2023-04-09T04:58:14;102583.81;;;5.76;100.00
65557;BME280;52200;53.490;14.376;2023-04-09T05:00:40;102575.09;;;5.62;100.00
65557;BME280;52200;53.490;14.376;2023-04-09T05:03:05;102578.13;;;5.48;100.00
65557;BME280;52200;53.490;14.376;2023-04-09T05:05:30;102583.75;;;5.73;99.86
65557;BME280;52200;53.490;14.376;2023-04-09T05:07:56;102583.53;;;5.64;100.00
65557;BME280;52200;53.490;14.376;2023-04-09T05:10:21;102584.69;;;5.77;99.78
65557;BME280;52200;53.490;14.376;2023-04-09T05:12:46;102585.94;;;5.96;98.56
65557;BME280;52200;53.490;14.376;2023-04-09T05:15:12;102582.84;;;6.06;97.68
65557;BME280;52200;53.490;14.376;2023-04-09T05:17:38;102575.81;;;5.93;97.63
65557;BME280;52200;53.490;14.376;2023-04-09T05:20:07;102581.94;;;5.68;98.83
65557;BME280;52200;53.490;14.376;2023-04-09T05:22:32;102577.16;;;5.78;98.72
65557;BME280;52200;53.490;14.376;2023-04-09T05:24:57;102588.50;;;5.61;98.24
65557;BME280;52200;53.490;14.376;2023-04-09T05:27:23;102587.44;;;5.88;97.91
65557;BME280;52200;53.490;14.376;2023-04-09T05:29:50;102592.91;;;5.70;98.50
65557;BME280;52200;53.490;14.376;2023-04-09T05:32:15;102589.72;;;5.77;98.69
65557;BME280;52200;53.490;14.376;2023-04-09T05:34:40;102592.19;;;5.75;99.31
65557;BME280;52200;53.490;14.376;2023-04-09T05:37:06;102589.88;;;6.20;97.42
65557;BME280;52200;53.490;14.376;2023-04-09T05:39:31;102601.03;;;6.31;95.75
65557;BME280;52200;53.490;14.376;2023-04-09T05:41:57;102590.63;;;6.16;95.54
65557;BME280;52200;53.490;14.376;2023-04-09T05:44:22;102598.06;;;6.09;96.98
65557;BME280;52200;53.490;14.376;2023-04-09T05:46:47;102599.59;;;5.68;97.31
65557;BME280;52200;53.490;14.376;2023-04-09T05:49:13;102594.00;;;5.79;98.75
65557;BME280;52200;53.490;14.376;2023-04-09T05:51:38;102591.88;;;5.96;98.28
65557;BME280;52200;53.490;14.376;2023-04-09T05:54:03;102596.56;;;6.18;96.83
65557;BME280;52200;53.490;14.376;2023-04-09T05:56:29;102597.66;;;5.94;96.43
65557;BME280;52200;53.490;14.376;2023-04-09T05:58:54;102598.75;;;6.04;96.27
65557;BME280;52200;53.490;14.376;2023-04-09T06:01:20;102608.28;;;6.55;95.54
65557;BME280;52200;53.490;14.376;2023-04-09T06:03:45;102604.13;;;6.57;94.29
65557;BME280;52200;53.490;14.376;2023-04-09T06:06:12;102602.59;;;6.24;94.75
65557;BME280;52200;53.490;14.376;2023-04-09T06:08:37;102604.09;;;6.16;94.67
65557;BME280;52200;53.490;14.376;2023-04-09T06:11:03;102610.72;;;6.51;93.98
65557;BME280;52200;53.490;14.376;2023-04-09T06:13:28;102607.94;;;6.80;92.15
65557;BME280;52200;53.490;14.376;2023-04-09T06:15:54;102603.81;;;6.83;91.84
65557;BME280;52200;53.490;14.376;2023-04-09T06:18:19;102606.00;;;7.10;90.83
65557;BME280;52200;53.490;14.376;2023-04-09T06:20:44;102608.19;;;6.92;90.69
65557;BME280;52200;53.490;14.376;2023-04-09T06:23:10;102599.91;;;6.99;91.01
65557;BME280;52200;53.490;14.376;2023-04-09T06:25:35;102604.59;;;6.81;90.63
65557;BME280;52200;53.490;14.376;2023-04-09T06:28:01;102607.88;;;6.76;91.54
65557;BME280;52200;53.490;14.376;2023-04-09T06:30:27;102605.47;;;6.83;90.91
65557;BME280;52200;53.490;14.376;2023-04-09T06:32:53;102604.09;;;6.56;91.52
65557;BME280;52200;53.490;14.376;2023-04-09T06:35:18;102605.16;;;6.26;92.36
65557;BME280;52200;53.490;14.376;2023-04-09T06:37:43;102613.06;;;6.03;93.96
65557;BME280;52200;53.490;14.376;2023-04-09T06:40:09;102600.50;;;6.06;95.07
65557;BME280;52200;53.490;14.376;2023-04-09T06:42:34;102603.56;;;6.31;93.06
65557;BME280;52200;53.490;14.376;2023-04-09T06:45:00;102610.13;;;6.23;94.31
65557;BME280;52200;53.490;14.376;2023-04-09T06:47:25;102607.22;;;6.44;93.91
65557;BME280;52200;53.490;14.376;2023-04-09T06:49:51;102609.94;;;6.96;92.31
65557;BME280;52200;53.490;14.376;2023-04-09T06:52:16;102609.56;;;7.20;90.31
65557;BME280;52200;53.490;14.376;2023-04-09T06:54:41;102606.34;;;7.31;89.18
65557;BME280;52200;53.490;14.376;2023-04-09T06:57:07;102604.03;;;7.43;88.17
65557;BME280;52200;53.490;14.376;2023-04-09T06:59:32;102609.47;;;7.17;88.49
65557;BME280;52200;53.490;14.376;2023-04-09T07:01:59;102609.91;;;7.40;88.20
65557;BME280;52200;53.490;14.376;2023-04-09T07:04:24;102607.31;;;7.37;87.50
65557;BME280;52200;53.490;14.376;2023-04-09T07:06:50;102611.63;;;7.45;87.05
65557;BME280;52200;53.490;14.376;2023-04-09T07:09:17;102609.22;;;7.52;87.02
65557;BME280;52200;53.490;14.376;2023-04-09T07:11:43;102609.41;;;7.63;87.08
65557;BME280;52200;53.490;14.376;2023-04-09T07:14:08;102611.31;;;7.75;87.00
65557;BME280;52200;53.490;14.376;2023-04-09T07:16:33;102611.59;;;7.95;85.66
65557;BME280;52200;53.490;14.376;2023-04-09T07:18:59;102606.44;;;7.89;85.51
65557;BME280;52200;53.490;14.376;2023-04-09T07:21:24;102608.06;;;7.84;85.81
65557;BME280;52200;53.490;14.376;2023-04-09T07:23:52;102613.84;;;7.77;85.81
65557;BME280;52200;53.490;14.376;2023-04-09T07:26:17;102613.88;;;7.78;86.29
65557;BME280;52200;53.490;14.376;2023-04-09T07:28:43;102608.31;;;8.01;85.29
65557;BME280;52200;53.490;14.376;2023-04-09T07:31:08;102610.78;;;7.96;84.68
65557;BME280;52200;53.490;14.376;2023-04-09T07:33:33;102612.41;;;7.91;85.32
65557;BME280;52200;53.490;14.376;2023-04-09T07:35:59;102616.00;;;8.07;84.75
65557;BME280;52200;53.490;14.376;2023-04-09T07:38:27;102618.06;;;8.36;83.50
65557;BME280;52200;53.490;14.376;2023-04-09T07:40:52;102623.88;;;8.27;83.78
65557;BME280;52200;53.490;14.376;2023-04-09T07:43:18;102617.47;;;7.93;84.20
65557;BME280;52200;53.490;14.376;2023-04-09T07:45:43;102618.91;;;7.75;85.49
65557;BME280;52200;53.490;14.376;2023-04-09T07:48:09;102617.41;;;7.89;85.53
65557;BME280;52200;53.490;14.376;2023-04-09T07:50:34;102612.94;;;7.73;86.08
65557;BME280;52200;53.490;14.376;2023-04-09T07:53:00;102615.44;;;7.21;87.64
65557;BME280;52200;53.490;14.376;2023-04-09T07:55:25;102620.94;;;7.46;87.41
65557;BME280;52200;53.490;14.376;2023-04-09T07:57:51;102615.63;;;7.82;86.56
65557;BME280;52200;53.490;14.376;2023-04-09T08:00:16;102616.63;;;7.92;85.85
65557;BME280;52200;53.490;14.376;2023-04-09T08:02:42;102624.88;;;7.82;86.42
65557;BME280;52200;53.490;14.376;2023-04-09T08:05:08;102617.63;;;8.02;85.83
65557;BME280;52200;53.490;14.376;2023-04-09T08:07:33;102627.22;;;8.26;84.92
65557;BME280;52200;53.490;14.376;2023-04-09T08:09:59;102622.06;;;8.20;84.79
65557;BME280;52200;53.490;14.376;2023-04-09T08:12:24;102624.59;;;8.18;84.93
65557;BME280;52200;53.490;14.376;2023-04-09T08:14:49;102632.53;;;7.85;85.86
65557;BME280;52200;53.490;14.376;2023-04-09T08:17:15;102634.56;;;8.09;85.78
65557;BME280;52200;53.490;14.376;2023-04-09T08:19:40;102634.75;;;8.21;85.25
65557;BME280;52200;53.490;14.376;2023-04-09T08:22:05;102639.22;;;7.80;85.83
65557;BME280;52200;53.490;14.376;2023-04-09T08:24:31;102634.16;;;7.80;86.23
65557;BME280;52200;53.490;14.376;2023-04-09T08:26:56;102641.66;;;7.73;86.80
65557;BME280;52200;53.490;14.376;2023-04-09T08:29:21;102631.81;;;7.92;85.48
65557;BME280;52200;53.490;14.376;2023-04-09T08:31:47;102634.03;;;8.30;84.61
65557;BME280;52200;53.490;14.376;2023-04-09T08:34:12;102633.69;;;8.05;85.59
65557;BME280;52200;53.490;14.376;2023-04-09T08:36:40;102634.19;;;7.83;85.50
65557;BME280;52200;53.490;14.376;2023-04-09T08:39:05;102629.25;;;8.49;84.99
65557;BME280;52200;53.490;14.376;2023-04-09T08:41:31;102641.22;;;8.59;83.57
65557;BME280;52200;53.490;14.376;2023-04-09T08:43:57;102633.91;;;8.84;82.88
65557;BME280;52200;53.490;14.376;2023-04-09T08:46:23;102636.13;;;8.58;83.37
65557;BME280;52200;53.490;14.376;2023-04-09T08:48:50;102632.94;;;8.73;82.48
65557;BME280;52200;53.490;14.376;2023-04-09T08:51:20;102639.19;;;9.06;81.48
65557;BME280;52200;53.490;14.376;2023-04-09T08:54:05;102640.84;;;8.99;80.95
65557;BME280;52200;53.490;14.376;2023-04-09T08:56:31;102633.44;;;9.19;81.70
65557;BME280;52200;53.490;14.376;2023-04-09T08:58:56;102637.44;;;9.92;79.77
65557;BME280;52200;53.490;14.376;2023-04-09T09:01:26;102632.47;;;10.08;78.22
65557;BME280;52200;53.490;14.376;2023-04-09T09:03:58;102628.97;;;9.90;77.65
65557;BME280;52200;53.490;14.376;2023-04-09T09:06:28;102628.22;;;10.04;78.36
65557;BME280;52200;53.490;14.376;2023-04-09T09:09:10;102629.22;;;10.33;76.56
65557;BME280;52200;53.490;14.376;2023-04-09T09:11:40;102633.56;;;10.52;76.93
65557;BME280;52200;53.490;14.376;2023-04-09T09:14:08;102638.78;;;10.86;75.58
65557;BME280;52200;53.490;14.376;2023-04-09T09:16:37;102642.19;;;10.82;74.81
65557;BME280;52200;53.490;14.376;2023-04-09T09:19:32;102639.31;;;10.23;75.31
65557;BME280;52200;53.490;14.376;2023-04-09T09:22:02;102632.00;;;10.86;74.39
65557;BME280;52200;53.490;14.376;2023-04-09T09:24:29;102626.16;;;11.86;72.56
65557;BME280;52200;53.490;14.376;2023-04-09T09:26:56;102623.63;;;11.68;71.79
65557;BME280;52200;53.490;14.376;2023-04-09T09:29:23;102625.28;;;11.84;71.33
65557;BME280;52200;53.490;14.376;2023-04-09T09:31:52;102630.41;;;11.87;70.79
65557;BME280;52200;53.490;14.376;2023-04-09T09:34:21;102631.28;;;11.97;70.79
65557;BME280;52200;53.490;14.376;2023-04-09T09:36:47;102627.88;;;11.36;72.02
65557;BME280;52200;53.490;14.376;2023-04-09T09:39:13;102626.97;;;11.02;72.71
65557;BME280;52200;53.490;14.376;2023-04-09T09:41:42;102617.69;;;11.63;71.65
65557;BME280;52200;53.490;14.376;2023-04-09T09:44:08;102624.44;;;12.19;71.44
65557;BME280;52200;53.490;14.376;2023-04-09T09:46:36;102625.28;;;12.21;70.09
65557;BME280;52200;53.490;14.376;2023-04-09T09:49:03;102628.69;;;12.16;70.40
65557;BME280;52200;53.490;14.376;2023-04-09T09:51:30;102626.97;;;12.24;69.68
65557;BME280;52200;53.490;14.376;2023-04-09T09:53:57;102622.69;;;12.31;69.34
65557;BME280;52200;53.490;14.376;2023-04-09T09:56:31;102621.84;;;12.29;69.16
65557;BME280;52200;53.490;14.376;2023-04-09T10:01:25;102614.25;;;12.04;70.48
65557;BME280;52200;53.490;14.376;2023-04-09T10:03:51;102617.66;;;12.04;70.43
65557;BME280;52200;53.490;14.376;2023-04-09T10:06:17;102615.97;;;12.14;71.01
65557;BME280;52200;53.490;14.376;2023-04-09T10:08:43;102617.66;;;12.12;70.09
65557;BME280;52200;53.490;14.376;2023-04-09T10:11:09;102612.56;;;12.15;70.47
65557;BME280;52200;53.490;14.376;2023-04-09T10:13:39;102611.69;;;12.15;70.19
65557;BME280;52200;53.490;14.376;2023-04-09T10:16:06;102605.59;;;12.57;69.64
65557;BME280;52200;53.490;14.376;2023-04-09T10:18:31;102601.50;;;12.19;69.84
65557;BME280;52200;53.490;14.376;2023-04-09T10:21:23;102603.75;;;12.87;69.72
65557;BME280;52200;53.490;14.376;2023-04-09T10:23:51;102601.50;;;13.64;67.94
65557;BME280;52200;53.490;14.376;2023-04-09T10:26:18;102603.06;;;12.48;67.91
65557;BME280;52200;53.490;14.376;2023-04-09T10:28:43;102597.66;;;13.09;68.49
65557;BME280;52200;53.490;14.376;2023-04-09T10:31:09;102600.25;;;13.01;68.60
65557;BME280;52200;53.490;14.376;2023-04-09T10:33:36;102599.38;;;13.08;68.60
65557;BME280;52200;53.490;14.376;2023-04-09T10:36:08;102598.63;;;12.84;68.11
65557;BME280;52200;53.490;14.376;2023-04-09T10:38:36;102602.19;;;12.55;68.30
65557;BME280;52200;53.490;14.376;2023-04-09T10:41:20;102593.47;;;12.95;69.32
65557;BME280;52200;53.490;14.376;2023-04-09T10:43:47;102594.59;;;13.72;67.30
65557;BME280;52200;53.490;14.376;2023-04-09T10:46:30;102591.44;;;13.45;65.85
65557;BME280;52200;53.490;14.376;2023-04-09T10:49:15;102599.31;;;13.16;67.33
65557;BME280;52200;53.490;14.376;2023-04-09T10:52:08;102592.22;;;13.52;66.43
65557;BME280;52200;53.490;14.376;2023-04-09T11:01:58;102591.28;;;12.22;70.05
65557;BME280;52200;53.490;14.376;2023-04-09T11:04:33;102597.19;;;12.40;68.21
65557;BME280;52200;53.490;14.376;2023-04-09T11:07:04;102588.72;;;12.32;67.61
65557;BME280;52200;53.490;14.376;2023-04-09T11:09:34;102589.16;;;13.05;66.77
65557;BME280;52200;53.490;14.376;2023-04-09T11:11:59;102585.78;;;13.01;65.35
65557;BME280;52200;53.490;14.376;2023-04-09T11:14:26;102585.03;;;12.88;65.06
65557;BME280;52200;53.490;14.376;2023-04-09T11:16:51;102590.22;;;12.73;64.42
65557;BME280;52200;53.490;14.376;2023-04-09T11:19:17;102592.84;;;12.56;65.81
65557;BME280;52200;53.490;14.376;2023-04-09T11:21:44;102594.53;;;12.57;65.10
65557;BME280;52200;53.490;14.376;2023-04-09T11:24:14;102592.72;;;12.79;65.66
65557;BME280;52200;53.490;14.376;2023-04-09T11:26:42;102593.72;;;12.50;66.59
65557;BME280;52200;53.490;14.376;2023-04-09T11:29:07;102594.56;;;12.55;66.44
65557;BME280;52200;53.490;14.376;2023-04-09T11:31:34;102592.22;;;11.90;67.24
65557;BME280;52200;53.490;14.376;2023-04-09T11:34:00;102597.31;;;11.97;67.85
65557;BME280;52200;53.490;14.376;2023-04-09T11:36:25;102595.59;;;11.74;68.08
65557;BME280;52200;53.490;14.376;2023-04-09T11:38:55;102598.16;;;11.75;68.54
65557;BME280;52200;53.490;14.376;2023-04-09T11:41:36;102587.13;;;11.80;68.16
65557;BME280;52200;53.490;14.376;2023-04-09T11:44:06;102587.09;;;11.93;68.45
65557;BME280;52200;53.490;14.376;2023-04-09T11:46:33;102587.13;;;12.03;66.59
65557;BME280;52200;53.490;14.376;2023-04-09T11:49:00;102593.78;;;12.43;66.72
65557;BME280;52200;53.490;14.376;2023-04-09T11:51:26;102594.69;;;12.23;66.05
65557;BME280;52200;53.490;14.376;2023-04-09T11:53:53;102589.53;;;12.35;66.21
65557;BME280;52200;53.490;14.376;2023-04-09T11:56:18;102592.78;;;12.68;62.87
65557;BME280;52200;53.490;14.376;2023-04-09T11:58:45;102593.72;;;12.50;63.20
65557;BME280;52200;53.490;14.376;2023-04-09T12:01:12;102587.88;;;12.28;64.08
65557;BME280;52200;53.490;14.376;2023-04-09T12:03:37;102596.25;;;12.56;64.11
65557;BME280;52200;53.490;14.376;2023-04-09T12:06:04;102596.97;;;12.80;63.51
65557;BME280;52200;53.490;14.376;2023-04-09T12:08:33;102591.84;;;12.82;62.49
65557;BME280;52200;53.490;14.376;2023-04-09T12:11:14;102591.94;;;12.71;61.16
65557;BME280;52200;53.490;14.376;2023-04-09T12:13:40;102583.13;;;13.18;61.48
65557;BME280;52200;53.490;14.376;2023-04-09T12:16:09;102594.81;;;13.47;60.79
65557;BME280;52200;53.490;14.376;2023-04-09T12:18:35;102591.66;;;14.09;58.98
65557;BME280;52200;53.490;14.376;2023-04-09T12:21:02;102589.19;;;14.01;58.26
65557;BME280;52200;53.490;14.376;2023-04-09T12:23:27;102601.09;;;13.04;59.44
65557;BME280;52200;53.490;14.376;2023-04-09T12:25:52;102585.38;;;13.57;59.18
65557;BME280;52200;53.490;14.376;2023-04-09T12:28:19;102593.69;;;13.79;59.00
65557;BME280;52200;53.490;14.376;2023-04-09T12:30:45;102591.66;;;13.11;59.50
65557;BME280;52200;53.490;14.376;2023-04-09T12:33:12;102591.63;;;13.20;60.30
65557;BME280;52200;53.490;14.376;2023-04-09T12:35:37;102594.81;;;13.50;60.06
65557;BME280;52200;53.490;14.376;2023-04-09T12:38:03;102583.91;;;13.25;59.58
65557;BME280;52200;53.490;14.376;2023-04-09T12:40:31;102593.50;;;12.89;60.54
65557;BME280;52200;53.490;14.376;2023-04-09T12:42:57;102593.72;;;12.50;60.73
65557;BME280;52200;53.490;14.376;2023-04-09T12:45:22;102596.19;;;12.69;61.24
65557;BME280;52200;53.490;14.376;2023-04-09T12:47:48;102596.22;;;12.60;61.40
65557;BME280;52200;53.490;14.376;2023-04-09T12:50:14;102588.56;;;12.63;61.57
65557;BME280;52200;53.490;14.376;2023-04-09T12:52:40;102587.78;;;12.51;62.06
65557;BME280;52200;53.490;14.376;2023-04-09T12:55:06;102580.13;;;12.48;61.55
65557;BME280;52200;53.490;14.376;2023-04-09T12:57:32;102576.78;;;12.37;61.45
65557;BME280;52200;53.490;14.376;2023-04-09T12:59:58;102577.72;;;12.16;61.81
65557;BME280;52200;53.490;14.376;2023-04-09T13:02:24;102571.78;;;12.21;62.13
65557;BME280;52200;53.490;14.376;2023-04-09T13:04:49;102575.22;;;11.99;62.12